createdAt,value
2022-09-01T00:03:10.393Z,100
2022-09-01T00:13:10.408Z,100
2022-09-01T00:23:10.402Z,100
2022-09-01T00:33:10.369Z,100
2022-09-01T00:43:10.371Z,100
2022-09-01T00:53:10.358Z,100
2022-09-01T01:03:10.338Z,100
2022-09-01T01:13:10.343Z,100
2022-09-01T01:23:10.332Z,100
2022-09-01T01:33:10.318Z,100
2022-09-01T01:43:10.332Z,100
2022-09-01T01:53:11.234Z,100
2022-09-01T02:03:10.297Z,100
2022-09-01T02:13:10.304Z,100
2022-09-01T02:23:10.265Z,100
2022-09-01T02:33:10.279Z,100
2022-09-01T02:43:10.286Z,100
2022-09-01T02:53:10.253Z,100
2022-09-01T03:03:10.250Z,100
2022-09-01T03:13:10.223Z,100
2022-09-01T03:23:10.250Z,100
2022-09-01T03:33:10.225Z,100
2022-09-01T03:43:10.246Z,100
2022-09-01T03:53:10.246Z,100
2022-09-01T04:03:10.203Z,100
2022-09-01T04:13:10.195Z,100
2022-09-01T04:23:10.196Z,100
2022-09-01T04:33:10.205Z,100
2022-09-01T04:43:10.191Z,100
2022-09-01T04:53:10.187Z,100
2022-09-01T05:03:10.167Z,100
2022-09-01T05:13:10.134Z,100
2022-09-01T05:23:10.167Z,100
2022-09-01T05:33:10.157Z,100
2022-09-01T05:43:10.179Z,100
2022-09-01T05:53:11.110Z,100
2022-09-01T06:03:10.255Z,100
2022-09-01T06:13:10.632Z,100
2022-09-01T06:23:10.093Z,100
2022-09-01T06:33:10.109Z,100
2022-09-01T06:43:10.086Z,100
2022-09-01T06:53:39.230Z,100
2022-09-01T07:03:10.047Z,100
2022-09-01T07:13:10.065Z,100
2022-09-01T07:23:10.057Z,100
2022-09-01T07:43:09.984Z,100
2022-09-01T07:53:10.027Z,100
2022-09-01T08:03:10.061Z,100
2022-09-01T08:13:15.202Z,100
2022-09-01T08:23:09.995Z,100
2022-09-01T08:33:10.477Z,100
2022-09-01T08:43:14.677Z,100
2022-09-01T08:53:10.039Z,100
2022-09-01T09:03:10.024Z,100
2022-09-01T09:13:10.067Z,100
2022-09-01T09:23:09.934Z,97
2022-09-01T09:33:37.518Z,97
2022-09-01T09:43:09.914Z,97
2022-09-01T09:53:09.872Z,89
2022-09-01T10:03:11.190Z,78
2022-09-01T10:13:09.909Z,75
2022-09-01T10:23:15.136Z,73
2022-09-01T10:33:19.063Z,80
2022-09-01T10:43:12.386Z,74
2022-09-01T10:53:09.824Z,72
2022-09-01T11:13:09.821Z,73
2022-09-01T11:23:09.803Z,70
2022-09-01T11:33:09.795Z,67
2022-09-01T11:43:12.492Z,66
2022-09-01T11:53:09.777Z,67
2022-09-01T12:03:09.930Z,68
2022-09-01T12:13:09.750Z,74
2022-09-01T12:23:09.721Z,79
2022-09-01T12:33:25.216Z,80
2022-09-01T12:43:09.684Z,80
2022-09-01T12:53:09.695Z,75
2022-09-01T13:03:09.713Z,74
2022-09-01T13:13:09.678Z,74
2022-09-01T13:23:09.677Z,70
2022-09-01T13:33:25.150Z,72
2022-09-01T13:43:09.647Z,69
2022-09-01T14:03:09.640Z,76
2022-09-01T14:13:09.616Z,76
2022-09-01T14:23:09.612Z,72
2022-09-01T14:33:09.591Z,78
2022-09-01T14:43:09.611Z,75
2022-09-01T14:53:09.580Z,79
2022-09-01T15:03:09.580Z,78
2022-09-01T15:13:09.544Z,81
2022-09-01T15:23:09.545Z,81
2022-09-01T15:33:13.314Z,83
2022-09-01T15:43:09.507Z,85
2022-09-01T15:53:09.518Z,81
2022-09-01T16:03:09.517Z,83
2022-09-01T16:13:09.514Z,85
2022-09-01T16:23:09.509Z,79
2022-09-01T16:33:09.483Z,80
2022-09-01T16:43:09.469Z,82
2022-09-01T16:53:09.478Z,86
2022-09-01T17:03:09.427Z,85
2022-09-01T17:13:09.451Z,89
2022-09-01T17:23:09.431Z,99
2022-09-01T17:33:13.081Z,100
2022-09-01T17:43:09.449Z,100
2022-09-01T17:53:10.096Z,100
2022-09-01T18:03:09.397Z,100
2022-09-01T18:13:09.406Z,100
2022-09-01T18:23:09.409Z,100
2022-09-01T18:33:09.383Z,100
2022-09-01T18:43:09.397Z,100
2022-09-01T18:53:09.384Z,100
2022-09-01T19:03:09.355Z,100
2022-09-01T19:13:09.370Z,100
2022-09-01T19:23:09.372Z,100
2022-09-01T19:33:09.331Z,100
2022-09-01T19:43:09.357Z,100
2022-09-01T19:53:10.240Z,100
2022-09-01T20:03:09.435Z,100
2022-09-01T20:13:09.310Z,100
2022-09-01T20:23:09.294Z,100
2022-09-01T20:33:09.283Z,100
2022-09-01T20:43:09.283Z,100
2022-09-01T20:53:09.276Z,100
2022-09-01T21:03:12.069Z,100
2022-09-01T21:13:09.343Z,100
2022-09-01T21:23:09.259Z,100
2022-09-01T21:33:09.250Z,100
2022-09-01T21:43:09.254Z,100
2022-09-01T21:53:09.257Z,100
2022-09-01T22:03:09.257Z,100
2022-09-01T22:13:09.215Z,100
2022-09-01T22:23:09.213Z,100
2022-09-01T22:33:09.208Z,100
2022-09-01T22:43:09.212Z,100
2022-09-01T22:53:09.205Z,100
2022-09-01T23:03:09.169Z,100
2022-09-01T23:13:09.180Z,100
2022-09-01T23:23:09.182Z,100
2022-09-01T23:33:09.166Z,100
2022-09-01T23:43:09.172Z,100
2022-09-01T23:53:09.168Z,100
